Powersite, Missouri
Current Conditions -  °F | °C
As of 11:35 PM on Wednesday 26 Nov 2014 (Local Time) from KBBG Reporting Station
Overcast Overcast  
Wind Chill: 23°   Ceiling: 2400
Heat Index: 34°   Visibility: 10mi
Dew Point: 25°   Wind: 17mph
Humidity: 70%   Direction: 310°NW
Pressure: 30.29"   Gusts: 28mph
Location:  36.66°N, 93.12°W
Report Text: KBBG 270535Z AUTO 31015G24KT 10SM OVC024 01/M04 A3029 RMK AO2
Loading
Personal Weather Stations






























Interactive Weather Map New forecast layout! Learn more

10-Day Weather Forecast

Advertisements
Track Severe Weather on mobile